createdAt,value
2018-02-07T00:00:21.920Z,1017.74
2018-02-07T00:01:31.671Z,1017.77
2018-02-07T00:02:40.902Z,1017.8
2018-02-07T00:03:49.862Z,1017.83
2018-02-07T00:04:58.557Z,1017.79
2018-02-07T00:06:07.776Z,1017.85
2018-02-07T00:07:16.734Z,1017.83
2018-02-07T00:08:25.428Z,1017.8
2018-02-07T00:09:34.120Z,1017.78
2018-02-07T00:10:42.813Z,1017.76
2018-02-07T00:11:52.039Z,1017.75
2018-02-07T00:13:01.268Z,1017.73
2018-02-07T00:14:10.491Z,1017.71
2018-02-07T00:15:19.460Z,1017.72
2018-02-07T00:16:28.690Z,1017.77
2018-02-07T00:17:37.382Z,1017.72
2018-02-07T00:18:46.345Z,1017.73
2018-02-07T00:19:55.037Z,1017.74
2018-02-07T00:21:04.263Z,1017.73
2018-02-07T00:22:12.961Z,1017.74
2018-02-07T00:23:21.919Z,1017.73
2018-02-07T00:24:30.877Z,1017.76
2018-02-07T00:25:39.836Z,1017.75
2018-02-07T00:26:48.793Z,1017.77
2018-02-07T00:27:57.485Z,1017.78
2018-02-07T00:29:06.718Z,1017.79
2018-02-07T00:30:15.678Z,1017.78
2018-02-07T00:31:24.636Z,1017.76
2018-02-07T00:32:33.601Z,1017.76
2018-02-07T00:33:42.293Z,1017.75
2018-02-07T00:34:51.252Z,1017.77
2018-02-07T00:36:00.488Z,1017.76
2018-02-07T00:37:09.444Z,1017.73
2018-02-07T00:38:18.408Z,1017.71
2018-02-07T00:39:27.102Z,1017.71
2018-02-07T00:40:35.798Z,1017.66
2018-02-07T00:41:44.764Z,1017.68
2018-02-07T00:42:53.723Z,1017.67
2018-02-07T00:44:02.992Z,1017.68
2018-02-07T00:45:11.645Z,1017.69
2018-02-07T00:46:20.606Z,1017.68
2018-02-07T00:47:29.834Z,1017.66
2018-02-07T00:48:39.058Z,1017.69
2018-02-07T00:49:47.746Z,1017.72
2018-02-07T00:50:56.755Z,1017.74
2018-02-07T00:52:05.985Z,1017.71
2018-02-07T00:53:14.948Z,1017.74
2018-02-07T00:54:24.448Z,1017.71
2018-02-07T00:55:33.702Z,1017.75
2018-02-07T00:56:42.363Z,1017.73
2018-02-07T00:57:51.330Z,1017.74
2018-02-07T00:59:00.030Z,1017.73
2018-02-07T01:00:08.994Z,1017.71
2018-02-07T01:01:17.692Z,1017.76
2018-02-07T01:02:26.917Z,1017.69
2018-02-07T01:03:35.875Z,1017.7
2018-02-07T01:04:45.362Z,1017.72
2018-02-07T01:05:54.322Z,1017.71
2018-02-07T01:07:03.283Z,1017.79
2018-02-07T01:08:12.245Z,1017.77
2018-02-07T01:09:21.468Z,1017.78
2018-02-07T01:10:30.697Z,1017.79
2018-02-07T01:11:40.187Z,1017.82
2018-02-07T01:12:49.144Z,1017.86
2018-02-07T01:13:58.104Z,1017.87
2018-02-07T01:15:07.333Z,1017.88
2018-02-07T01:16:16.029Z,1017.87
2018-02-07T01:17:25.254Z,1017.88
2018-02-07T01:18:33.951Z,1017.84
2018-02-07T01:19:43.219Z,1017.82
2018-02-07T01:20:52.181Z,1017.83
2018-02-07T01:22:01.417Z,1017.82
2018-02-07T01:23:10.116Z,1017.82
2018-02-07T01:24:19.342Z,1017.82
2018-02-07T01:25:28.308Z,1017.85
2018-02-07T01:26:37.266Z,1017.9
2018-02-07T01:27:46.221Z,1017.87
2018-02-07T01:28:55.712Z,1017.91
2018-02-07T01:30:04.405Z,1017.89
2018-02-07T01:31:13.364Z,1017.91
2018-02-07T01:32:22.064Z,1017.93
2018-02-07T01:33:30.753Z,1017.89
2018-02-07T01:34:39.719Z,1017.92
2018-02-07T01:35:48.678Z,1017.87
2018-02-07T01:36:57.371Z,1017.86
2018-02-07T01:38:06.859Z,1017.85
2018-02-07T01:39:15.552Z,1017.82
2018-02-07T01:40:24.512Z,1017.83
2018-02-07T01:41:33.208Z,1017.82
2018-02-07T01:42:42.434Z,1017.84
2018-02-07T01:43:51.394Z,1017.82
2018-02-07T01:45:00.351Z,1017.84
2018-02-07T01:46:09.584Z,1017.86
2018-02-07T01:47:18.538Z,1017.83
2018-02-07T01:48:27.498Z,1017.81
2018-02-07T01:49:36.460Z,1017.81
2018-02-07T01:50:45.681Z,1017.84
2018-02-07T01:51:54.639Z,1017.82
2018-02-07T01:53:03.600Z,1017.81
2018-02-07T01:54:12.829Z,1017.79
2018-02-07T01:55:21.520Z,1017.78
2018-02-07T01:56:30.483Z,1017.75
2018-02-07T01:57:39.438Z,1017.75
2018-02-07T01:58:49.200Z,1017.75
2018-02-07T01:59:58.158Z,1017.76
2018-02-07T02:01:07.388Z,1017.77
2018-02-07T02:02:16.344Z,1017.73
2018-02-07T02:03:25.306Z,1017.69
2018-02-07T02:04:34.001Z,1017.72
2018-02-07T02:05:42.960Z,1017.75
2018-02-07T02:06:51.922Z,1017.75
2018-02-07T02:08:01.145Z,1017.72
2018-02-07T02:09:10.105Z,1017.76
2018-02-07T02:10:19.074Z,1017.72
2018-02-07T02:11:28.028Z,1017.78
2018-02-07T02:12:36.991Z,1017.78
2018-02-07T02:13:46.221Z,1017.79
2018-02-07T02:14:54.914Z,1017.78
2018-02-07T02:16:04.141Z,1017.81
2018-02-07T02:17:12.837Z,1017.83
2018-02-07T02:18:21.794Z,1017.84
2018-02-07T02:19:30.753Z,1017.81
2018-02-07T02:20:39.983Z,1017.82
2018-02-07T02:21:48.956Z,1017.82
2018-02-07T02:22:57.920Z,1017.82
2018-02-07T02:24:06.623Z,1017.83
2018-02-07T02:25:15.317Z,1017.81
2018-02-07T02:26:24.550Z,1017.83
2018-02-07T02:27:33.244Z,1017.77
2018-02-07T02:28:41.941Z,1017.81
2018-02-07T02:29:51.437Z,1017.82
2018-02-07T02:31:00.396Z,1017.78
2018-02-07T02:32:09.356Z,1017.8
2018-02-07T02:33:18.312Z,1017.79
2018-02-07T02:34:27.271Z,1017.78
2018-02-07T02:35:36.232Z,1017.81
2018-02-07T02:36:45.192Z,1017.8
2018-02-07T02:37:54.955Z,1017.8
2018-02-07T02:39:04.180Z,1017.75
2018-02-07T02:40:13.407Z,1017.8
2018-02-07T02:41:22.105Z,1017.79
2018-02-07T02:42:30.801Z,1017.77
2018-02-07T02:43:40.031Z,1017.81
2018-02-07T02:44:49.529Z,1017.82
2018-02-07T02:45:58.226Z,1017.86
2018-02-07T02:47:07.456Z,1017.84
2018-02-07T02:48:16.413Z,1017.85
2018-02-07T02:49:25.645Z,1017.88
2018-02-07T02:50:34.606Z,1017.88
2018-02-07T02:51:43.566Z,1017.89
2018-02-07T02:52:52.791Z,1017.87
2018-02-07T02:54:02.290Z,1017.87
2018-02-07T02:55:11.795Z,1017.86
2018-02-07T02:56:21.020Z,1017.84
2018-02-07T02:57:29.980Z,1017.83
2018-02-07T02:58:38.942Z,1017.9
2018-02-07T02:59:48.432Z,1017.93
2018-02-07T03:00:57.130Z,1017.96
2018-02-07T03:02:06.091Z,1017.93
2018-02-07T03:03:14.787Z,1017.99
2018-02-07T03:04:23.480Z,1017.98
2018-02-07T03:05:32.704Z,1017.99
2018-02-07T03:06:41.670Z,1018.01
2018-02-07T03:07:50.630Z,1017.95
2018-02-07T03:08:59.321Z,1017.98
2018-02-07T03:10:08.315Z,1017.95
2018-02-07T03:11:17.812Z,1017.99
2018-02-07T03:12:26.772Z,1017.97
2018-02-07T03:13:35.731Z,1018.05
2018-02-07T03:14:44.953Z,1018.07
2018-02-07T03:15:54.183Z,1018.07
2018-02-07T03:17:02.875Z,1018.07
2018-02-07T03:18:11.833Z,1018.08
2018-02-07T03:19:20.795Z,1018.09
2018-02-07T03:20:29.490Z,1018.1
2018-02-07T03:21:38.450Z,1018.13
2018-02-07T03:22:47.151Z,1018.09
2018-02-07T03:23:56.116Z,1018.09
2018-02-07T03:25:05.073Z,1018.1
2018-02-07T03:26:13.764Z,1018.08
2018-02-07T03:27:22.729Z,1018.04
2018-02-07T03:28:31.685Z,1018.09
2018-02-07T03:29:40.376Z,1018.09
2018-02-07T03:30:49.334Z,1018.08
2018-02-07T03:31:58.565Z,1018.1
2018-02-07T03:33:07.792Z,1018.11
2018-02-07T03:34:16.755Z,1018.08
2018-02-07T03:35:25.981Z,1018.11
2018-02-07T03:36:34.943Z,1018.12
2018-02-07T03:37:44.435Z,1018.13
2018-02-07T03:38:53.396Z,1018.11
2018-02-07T03:40:02.089Z,1018.12
2018-02-07T03:41:11.347Z,1018.11
2018-02-07T03:42:20.630Z,1018.12
2018-02-07T03:43:29.322Z,1018.12
2018-02-07T03:44:38.285Z,1018.13
2018-02-07T03:45:47.508Z,1018.13
2018-02-07T03:46:56.204Z,1018.11
2018-02-07T03:48:04.901Z,1018.13
2018-02-07T03:49:14.395Z,1018.15
2018-02-07T03:50:23.354Z,1018.11
2018-02-07T03:51:32.314Z,1018.14
2018-02-07T03:52:41.536Z,1018.12
2018-02-07T03:53:50.498Z,1018.13
2018-02-07T03:54:59.191Z,1018.12
2018-02-07T03:56:08.422Z,1018.13
2018-02-07T03:57:17.380Z,1018.16
2018-02-07T03:58:26.328Z,1018.17
2018-02-07T03:59:35.008Z,1018.19
2018-02-07T04:00:43.692Z,1018.17
2018-02-07T04:01:52.640Z,1018.17
2018-02-07T04:03:01.857Z,1018.16
2018-02-07T04:04:11.068Z,1018.18
2018-02-07T04:05:19.751Z,1018.19
2018-02-07T04:06:28.758Z,1018.14
2018-02-07T04:07:37.708Z,1018.14
2018-02-07T04:08:46.393Z,1018.17
2018-02-07T04:09:55.605Z,1018.17
2018-02-07T04:11:04.555Z,1018.18
2018-02-07T04:12:13.241Z,1018.16
2018-02-07T04:13:22.197Z,1018.11
2018-02-07T04:14:30.881Z,1018.17
2018-02-07T04:15:39.561Z,1018.15
2018-02-07T04:16:48.773Z,1018.2
2018-02-07T04:17:57.455Z,1018.19
2018-02-07T04:19:06.408Z,1018.13
2018-02-07T04:20:15.624Z,1018.13
2018-02-07T04:21:24.832Z,1018.11
2018-02-07T04:22:33.515Z,1018.09
2018-02-07T04:23:42.201Z,1018.05
2018-02-07T04:24:51.411Z,1018.02
2018-02-07T04:26:00.629Z,1018.1
2018-02-07T04:27:09.311Z,1018.11
2018-02-07T04:28:18.000Z,1018.12
2018-02-07T04:29:26.699Z,1018.13
2018-02-07T04:30:35.363Z,1018.13
2018-02-07T04:31:44.594Z,1018.16
2018-02-07T04:32:53.276Z,1018.17
2018-02-07T04:34:01.962Z,1018.17
2018-02-07T04:35:11.436Z,1018.18
2018-02-07T04:36:20.122Z,1018.2
2018-02-07T04:37:29.335Z,1018.18
2018-02-07T04:38:38.277Z,1018.2
2018-02-07T04:39:47.228Z,1018.19
2018-02-07T04:40:56.439Z,1018.18
2018-02-07T04:42:05.390Z,1018.19
2018-02-07T04:43:14.868Z,1018.16
2018-02-07T04:44:23.552Z,1018.17
2018-02-07T04:45:32.236Z,1018.14
2018-02-07T04:46:41.446Z,1018.19
2018-02-07T04:47:50.656Z,1018.16
2018-02-07T04:48:59.911Z,1018.2
2018-02-07T04:50:09.127Z,1018.21
2018-02-07T04:51:18.342Z,1018.23
2018-02-07T04:52:27.027Z,1018.23
2018-02-07T04:53:35.709Z,1018.22
2018-02-07T04:54:44.396Z,1018.26
2018-02-07T04:55:53.343Z,1018.25
2018-02-07T04:57:02.830Z,1018.25
2018-02-07T04:58:11.774Z,1018.28
2018-02-07T04:59:20.989Z,1018.29
2018-02-07T05:00:29.674Z,1018.34
2018-02-07T05:01:38.627Z,1018.32
2018-02-07T05:02:47.313Z,1018.35
2018-02-07T05:03:56.260Z,1018.38
2018-02-07T05:05:04.945Z,1018.4
2018-02-07T05:06:13.626Z,1018.38
2018-02-07T05:07:22.572Z,1018.37
2018-02-07T05:08:31.787Z,1018.38
2018-02-07T05:09:40.729Z,1018.34
2018-02-07T05:10:49.944Z,1018.35
2018-02-07T05:11:58.627Z,1018.39
2018-02-07T05:13:07.851Z,1018.42
2018-02-07T05:14:16.533Z,1018.45
2018-02-07T05:15:25.745Z,1018.41
2018-02-07T05:16:34.427Z,1018.4
2018-02-07T05:17:43.108Z,1018.4
2018-02-07T05:18:51.792Z,1018.43
2018-02-07T05:20:00.476Z,1018.4
2018-02-07T05:21:09.422Z,1018.42
2018-02-07T05:22:18.367Z,1018.42
2018-02-07T05:23:27.318Z,1018.43
2018-02-07T05:24:35.999Z,1018.36
2018-02-07T05:25:45.480Z,1018.39
2018-02-07T05:26:54.696Z,1018.43
2018-02-07T05:28:03.379Z,1018.42
2018-02-07T05:29:12.862Z,1018.4
2018-02-07T05:30:22.073Z,1018.38
2018-02-07T05:31:30.757Z,1018.39
2018-02-07T05:32:39.704Z,1018.37
2018-02-07T05:33:48.921Z,1018.39
2018-02-07T05:34:57.900Z,1018.39
2018-02-07T05:36:07.121Z,1018.37
2018-02-07T05:37:15.804Z,1018.37
2018-02-07T05:38:24.488Z,1018.37
2018-02-07T05:39:33.439Z,1018.34
2018-02-07T05:40:42.384Z,1018.36
2018-02-07T05:41:51.598Z,1018.34
2018-02-07T05:43:00.550Z,1018.34
2018-02-07T05:44:09.233Z,1018.34
2018-02-07T05:45:18.178Z,1018.32
2018-02-07T05:46:27.656Z,1018.29
2018-02-07T05:47:36.603Z,1018.27
2018-02-07T05:48:45.814Z,1018.26
2018-02-07T05:49:54.760Z,1018.29
2018-02-07T05:51:03.971Z,1018.27
2018-02-07T05:52:13.190Z,1018.29
2018-02-07T05:53:22.131Z,1018.29
2018-02-07T05:54:31.077Z,1018.29
2018-02-07T05:55:40.026Z,1018.26
2018-02-07T05:56:49.246Z,1018.26
2018-02-07T05:57:57.928Z,1018.29
2018-02-07T05:59:06.609Z,1018.28
2018-02-07T06:00:15.556Z,1018.25
2018-02-07T06:01:24.508Z,1018.29
2018-02-07T06:02:33.458Z,1018.3
2018-02-07T06:03:42.141Z,1018.31
2018-02-07T06:04:51.355Z,1018.34
2018-02-07T06:06:00.845Z,1018.38
2018-02-07T06:07:09.848Z,1018.39
2018-02-07T06:08:19.323Z,1018.41
2018-02-07T06:09:28.006Z,1018.48
2018-02-07T06:10:36.955Z,1018.49
2018-02-07T06:11:45.641Z,1018.49
2018-02-07T06:12:54.324Z,1018.45
2018-02-07T06:14:03.271Z,1018.49
2018-02-07T06:15:11.967Z,1018.43
2018-02-07T06:16:20.916Z,1018.44
2018-02-07T06:17:30.130Z,1018.47
2018-02-07T06:18:39.087Z,1018.49
2018-02-07T06:19:48.299Z,1018.54
2018-02-07T06:20:57.248Z,1018.54
2018-02-07T06:22:06.195Z,1018.53
2018-02-07T06:23:14.878Z,1018.58
2018-02-07T06:24:23.562Z,1018.53
2018-02-07T06:25:32.506Z,1018.58
2018-02-07T06:26:41.187Z,1018.53
2018-02-07T06:27:50.139Z,1018.53
2018-02-07T06:28:59.356Z,1018.56
2018-02-07T06:30:08.039Z,1018.55
2018-02-07T06:31:16.994Z,1018.55
2018-02-07T06:32:25.675Z,1018.57
2018-02-07T06:33:34.625Z,1018.58
2018-02-07T06:34:43.311Z,1018.6
2018-02-07T06:35:53.054Z,1018.6
2018-02-07T06:37:02.533Z,1018.62
2018-02-07T06:38:11.217Z,1018.62
2018-02-07T06:39:20.425Z,1018.65
2018-02-07T06:40:29.641Z,1018.63
2018-02-07T06:41:39.117Z,1018.61
2018-02-07T06:42:48.329Z,1018.59
2018-02-07T06:43:57.546Z,1018.65
2018-02-07T06:45:06.229Z,1018.63
2018-02-07T06:46:14.917Z,1018.62
2018-02-07T06:47:24.393Z,1018.6
2018-02-07T06:48:33.075Z,1018.59
2018-02-07T06:49:42.287Z,1018.57
2018-02-07T06:50:51.517Z,1018.56
2018-02-07T06:52:01.002Z,1018.58
2018-02-07T06:53:09.690Z,1018.59
2018-02-07T06:54:18.372Z,1018.62
2018-02-07T06:55:27.054Z,1018.62
2018-02-07T06:56:36.003Z,1018.66
2018-02-07T06:57:44.951Z,1018.65
2018-02-07T06:58:54.462Z,1018.67
2018-02-07T07:00:03.675Z,1018.67
2018-02-07T07:01:13.157Z,1018.68
2018-02-07T07:02:22.638Z,1018.65
2018-02-07T07:03:31.320Z,1018.68
2018-02-07T07:04:40.264Z,1018.66
2018-02-07T07:05:49.211Z,1018.7
2018-02-07T07:06:57.898Z,1018.71
2018-02-07T07:08:07.386Z,1018.71
2018-02-07T07:09:16.330Z,1018.75
2018-02-07T07:10:25.815Z,1018.79
2018-02-07T07:11:35.028Z,1018.76
2018-02-07T07:12:43.977Z,1018.76
2018-02-07T07:13:52.926Z,1018.77
2018-02-07T07:15:01.873Z,1018.73
2018-02-07T07:16:10.818Z,1018.76
2018-02-07T07:17:20.298Z,1018.73
2018-02-07T07:18:29.249Z,1018.78
2018-02-07T07:19:38.198Z,1018.74
2018-02-07T07:20:47.146Z,1018.72
2018-02-07T07:21:56.363Z,1018.68
2018-02-07T07:23:05.847Z,1018.75
2018-02-07T07:24:15.067Z,1018.75
2018-02-07T07:25:24.016Z,1018.74
2018-02-07T07:26:33.228Z,1018.81
2018-02-07T07:27:42.444Z,1018.83
2018-02-07T07:28:51.925Z,1018.82
2018-02-07T07:30:01.415Z,1018.86
2018-02-07T07:31:10.365Z,1018.86
2018-02-07T07:32:19.312Z,1018.87
2018-02-07T07:33:28.580Z,1018.9
2018-02-07T07:34:37.262Z,1018.92
2018-02-07T07:35:45.944Z,1018.94
2018-02-07T07:36:54.887Z,1019
2018-02-07T07:38:03.847Z,1019.04
2018-02-07T07:39:12.792Z,1019.04
2018-02-07T07:40:21.743Z,1019.08
2018-02-07T07:41:30.429Z,1019.07
2018-02-07T07:42:39.640Z,1019.09
2018-02-07T07:43:48.588Z,1019.07
2018-02-07T07:44:57.538Z,1019.03
2018-02-07T07:46:06.485Z,1019.08
2018-02-07T07:47:15.433Z,1019.05
2018-02-07T07:48:24.649Z,1019.11
2018-02-07T07:49:33.858Z,1019.08
2018-02-07T07:50:42.549Z,1019.08
2018-02-07T07:51:51.766Z,1019.04
2018-02-07T07:53:00.449Z,1019.08
2018-02-07T07:54:09.134Z,1019.04
2018-02-07T07:55:18.080Z,1019.09
2018-02-07T07:56:27.560Z,1019.06
2018-02-07T07:57:36.506Z,1019.09
2018-02-07T07:58:45.986Z,1019.1
2018-02-07T07:59:54.666Z,1019.08
2018-02-07T08:01:03.345Z,1019.14
2018-02-07T08:02:12.027Z,1019.11
2018-02-07T08:03:20.978Z,1019.11
2018-02-07T08:04:29.663Z,1019.12
2018-02-07T08:05:38.611Z,1019.1
2018-02-07T08:06:47.560Z,1019.15
2018-02-07T08:07:56.240Z,1019.14
2018-02-07T08:09:05.453Z,1019.1
2018-02-07T08:10:14.670Z,1019.11
2018-02-07T08:11:23.885Z,1019.11
2018-02-07T08:12:33.097Z,1019.09
2018-02-07T08:13:42.047Z,1019.08
2018-02-07T08:14:51.261Z,1019.13
2018-02-07T08:16:00.484Z,1019.14
2018-02-07T08:17:09.702Z,1019.15
2018-02-07T08:18:18.659Z,1019.11
2018-02-07T08:19:27.602Z,1019.12
2018-02-07T08:20:36.811Z,1019.15
2018-02-07T08:21:45.495Z,1019.14
2018-02-07T08:22:54.444Z,1019.11
2018-02-07T08:24:03.393Z,1019.12
2018-02-07T08:25:12.345Z,1019.15
2018-02-07T08:26:21.028Z,1019.21
2018-02-07T08:27:29.714Z,1019.2
2018-02-07T08:28:38.927Z,1019.26
2018-02-07T08:29:47.876Z,1019.26
2018-02-07T08:30:57.103Z,1019.28
2018-02-07T08:32:06.380Z,1019.28
2018-02-07T08:33:15.329Z,1019.28
2018-02-07T08:34:24.541Z,1019.28
2018-02-07T08:35:33.219Z,1019.29
2018-02-07T08:36:42.434Z,1019.29
2018-02-07T08:37:51.380Z,1019.28
2018-02-07T08:39:00.324Z,1019.28
2018-02-07T08:40:09.532Z,1019.27
2018-02-07T08:41:18.748Z,1019.26
2018-02-07T08:42:27.955Z,1019.27
2018-02-07T08:43:36.901Z,1019.31
2018-02-07T08:44:46.115Z,1019.33
2018-02-07T08:45:55.064Z,1019.36
2018-02-07T08:47:04.289Z,1019.4
2018-02-07T08:48:12.972Z,1019.43
2018-02-07T08:49:21.929Z,1019.44
2018-02-07T08:50:30.877Z,1019.43
2018-02-07T08:51:39.826Z,1019.43
2018-02-07T08:52:48.508Z,1019.41
2018-02-07T08:53:57.191Z,1019.44
2018-02-07T08:55:06.139Z,1019.42
2018-02-07T08:56:15.087Z,1019.46
2018-02-07T08:57:24.827Z,1019.44
2018-02-07T08:58:34.040Z,1019.44
2018-02-07T08:59:42.994Z,1019.47
2018-02-07T09:00:51.939Z,1019.45
2018-02-07T09:02:00.880Z,1019.47
2018-02-07T09:03:09.835Z,1019.45
2018-02-07T09:04:19.676Z,1019.44
2018-02-07T09:05:28.894Z,1019.45
2018-02-07T09:06:37.577Z,1019.46
2018-02-07T09:07:46.257Z,1019.47
2018-02-07T09:08:55.472Z,1019.52
2018-02-07T09:10:04.964Z,1019.54
2018-02-07T09:11:13.645Z,1019.54
2018-02-07T09:12:22.594Z,1019.52
2018-02-07T09:13:31.276Z,1019.59
2018-02-07T09:14:40.226Z,1019.57
2018-02-07T09:15:49.438Z,1019.54
2018-02-07T09:16:58.657Z,1019.55
2018-02-07T09:18:07.876Z,1019.58
2018-02-07T09:19:16.827Z,1019.55
2018-02-07T09:20:25.777Z,1019.58
2018-02-07T09:21:34.461Z,1019.6
2018-02-07T09:22:43.672Z,1019.64
2018-02-07T09:23:52.355Z,1019.62
2018-02-07T09:25:01.833Z,1019.58
2018-02-07T09:26:10.783Z,1019.63
2018-02-07T09:27:19.726Z,1019.62
2018-02-07T09:28:29.204Z,1019.62
2018-02-07T09:29:38.152Z,1019.64
2018-02-07T09:30:47.364Z,1019.67
2018-02-07T09:31:56.313Z,1019.69
2018-02-07T09:33:05.263Z,1019.69
2018-02-07T09:34:13.954Z,1019.72
2018-02-07T09:35:23.434Z,1019.69
2018-02-07T09:36:32.385Z,1019.7
2018-02-07T09:37:41.594Z,1019.65
2018-02-07T09:38:50.546Z,1019.66
2018-02-07T09:39:59.233Z,1019.69
2018-02-07T09:41:08.182Z,1019.72
2018-02-07T09:42:17.402Z,1019.74
2018-02-07T09:43:26.911Z,1019.77
2018-02-07T09:44:36.122Z,1019.76
2018-02-07T09:45:45.073Z,1019.78
2018-02-07T09:46:53.753Z,1019.75
2018-02-07T09:48:03.231Z,1019.78
2018-02-07T09:49:12.444Z,1019.8
2018-02-07T09:50:21.389Z,1019.81
2018-02-07T09:51:30.071Z,1019.86
2018-02-07T09:52:39.020Z,1019.86
2018-02-07T09:53:48.237Z,1019.86
2018-02-07T09:54:57.186Z,1019.84
2018-02-07T09:56:06.395Z,1019.85
2018-02-07T09:57:15.608Z,1019.84
2018-02-07T09:58:24.293Z,1019.85
2018-02-07T09:59:33.242Z,1019.83
2018-02-07T10:00:42.199Z,1019.85
2018-02-07T10:01:52.209Z,1019.9
2018-02-07T10:03:01.156Z,1019.84
2018-02-07T10:04:09.842Z,1019.86
2018-02-07T10:05:50.905Z,1019.85
2018-02-07T10:07:00.131Z,1019.83
2018-02-07T10:08:08.808Z,1019.88
2018-02-07T10:09:17.490Z,1019.9
2018-02-07T10:10:26.182Z,1019.85
2018-02-07T10:11:34.864Z,1019.85
2018-02-07T10:12:43.546Z,1019.84
2018-02-07T10:13:52.228Z,1019.82
2018-02-07T10:15:00.909Z,1019.88
2018-02-07T10:16:09.593Z,1019.93
2018-02-07T10:17:18.540Z,1019.89
2018-02-07T10:18:27.764Z,1019.91
2018-02-07T10:19:36.714Z,1019.94
2018-02-07T10:20:45.664Z,1019.9
2018-02-07T10:21:54.622Z,1019.94
2018-02-07T10:23:03.828Z,1019.86
2018-02-07T10:24:12.507Z,1019.88
2018-02-07T10:25:21.716Z,1019.89
2018-02-07T10:26:30.663Z,1019.89
2018-02-07T10:27:39.610Z,1019.89
2018-02-07T10:28:48.820Z,1019.88
2018-02-07T10:29:58.038Z,1019.91
2018-02-07T10:31:06.984Z,1019.91
2018-02-07T10:32:16.199Z,1019.95
2018-02-07T10:33:24.882Z,1019.88
2018-02-07T10:34:33.837Z,1019.91
2018-02-07T10:35:43.582Z,1019.91
2018-02-07T10:36:52.799Z,1019.94
2018-02-07T10:38:01.482Z,1019.97
2018-02-07T10:39:10.165Z,1019.98
2018-02-07T10:40:18.848Z,1019.99
2018-02-07T10:41:27.531Z,1019.99
2018-02-07T10:42:36.742Z,1019.97
2018-02-07T10:43:45.695Z,1020.06
2018-02-07T10:44:54.379Z,1020.02
2018-02-07T10:46:03.329Z,1019.97
2018-02-07T10:47:12.276Z,1020
2018-02-07T10:48:20.959Z,1019.99
2018-02-07T10:49:30.442Z,1020.01
2018-02-07T10:50:39.122Z,1020.01
2018-02-07T10:51:47.812Z,1020
2018-02-07T10:52:57.558Z,1020.01
2018-02-07T10:54:06.501Z,1020
2018-02-07T10:55:15.450Z,1020
2018-02-07T10:56:24.134Z,1020
2018-02-07T10:57:33.080Z,1019.95
2018-02-07T10:58:42.292Z,1019.96
2018-02-07T10:59:51.245Z,1019.97
2018-02-07T11:00:59.927Z,1019.94
2018-02-07T11:02:08.881Z,1020
2018-02-07T11:03:17.564Z,1020
2018-02-07T11:04:26.775Z,1020.01
2018-02-07T11:05:35.462Z,1020
2018-02-07T11:06:44.417Z,1020.02
2018-02-07T11:07:53.894Z,1020.01
2018-02-07T11:09:02.576Z,1020.01
2018-02-07T11:10:12.100Z,1020.04
2018-02-07T11:11:21.049Z,1020.06
2018-02-07T11:12:29.735Z,1020.1
2018-02-07T11:13:38.944Z,1020.08
2018-02-07T11:14:48.156Z,1020.12
2018-02-07T11:15:56.838Z,1020.12
2018-02-07T11:17:05.527Z,1020.09
2018-02-07T11:18:14.743Z,1020.04
2018-02-07T11:19:23.694Z,1020.07
2018-02-07T11:20:32.638Z,1020.03
2018-02-07T11:21:41.856Z,1019.99
2018-02-07T11:22:51.085Z,1020
2018-02-07T11:24:00.034Z,1020.02
2018-02-07T11:25:08.983Z,1020
2018-02-07T11:26:17.932Z,1020.01
2018-02-07T11:27:26.882Z,1020.02
2018-02-07T11:28:35.829Z,1020.05
2018-02-07T11:29:44.778Z,1020.04
2018-02-07T11:30:53.462Z,1020.07
2018-02-07T11:32:02.145Z,1020.11
2018-02-07T11:33:11.622Z,1020.06
2018-02-07T11:34:20.830Z,1020.07
2018-02-07T11:35:30.043Z,1020.11
2018-02-07T11:36:39.259Z,1020.11
2018-02-07T11:37:48.207Z,1020.1
2018-02-07T11:38:57.421Z,1020.11
2018-02-07T11:40:06.906Z,1020.13
2018-02-07T11:41:15.862Z,1020.13
2018-02-07T11:42:25.068Z,1020.12
2018-02-07T11:43:33.749Z,1020.16
2018-02-07T11:44:42.701Z,1020.13
2018-02-07T11:45:51.387Z,1020.15
2018-02-07T11:47:00.599Z,1020.1
2018-02-07T11:48:09.284Z,1020.04
2018-02-07T11:49:18.500Z,1020.03
2018-02-07T11:50:27.715Z,1020.08
2018-02-07T11:51:36.665Z,1020.05
2018-02-07T11:52:45.610Z,1020.11
2018-02-07T11:53:54.296Z,1020.15
2018-02-07T11:55:03.513Z,1020.18
2018-02-07T11:56:12.463Z,1020.17
2018-02-07T11:57:21.992Z,1020.15
2018-02-07T11:58:30.939Z,1020.17
2018-02-07T11:59:39.621Z,1020.11
2018-02-07T12:00:48.835Z,1020.1
2018-02-07T12:01:58.049Z,1020.09
2018-02-07T12:03:07.530Z,1020.11
2018-02-07T12:04:16.211Z,1020.12
2018-02-07T12:05:24.897Z,1020.14
2018-02-07T12:06:34.113Z,1020.15
2018-02-07T12:07:43.324Z,1020.14
2018-02-07T12:08:52.805Z,1020.17
2018-02-07T12:10:01.758Z,1020.13
2018-02-07T12:11:10.712Z,1020.12
2018-02-07T12:12:19.933Z,1020.13
2018-02-07T12:13:28.876Z,1020.09
2018-02-07T12:14:37.826Z,1020.13
2018-02-07T12:15:46.774Z,1020.11
2018-02-07T12:16:55.723Z,1020.06
2018-02-07T12:18:04.672Z,1020.1
2018-02-07T12:19:13.889Z,1020.07
2018-02-07T12:20:22.582Z,1020.09
2018-02-07T12:21:31.796Z,1020.03
2018-02-07T12:22:40.746Z,1020.09
2018-02-07T12:23:49.687Z,1020.12
2018-02-07T12:24:58.633Z,1020.11
2018-02-07T12:26:07.587Z,1020.14
2018-02-07T12:27:16.534Z,1020.14
2018-02-07T12:28:25.794Z,1020.1
2018-02-07T12:29:34.478Z,1020.1
2018-02-07T12:30:43.164Z,1020.06
2018-02-07T12:31:51.847Z,1020.13
2018-02-07T12:33:00.532Z,1020.11
2018-02-07T12:34:09.750Z,1020.09
2018-02-07T12:35:18.446Z,1020.07
2018-02-07T12:36:27.405Z,1020.11
2018-02-07T12:37:36.606Z,1020.09
2018-02-07T12:38:45.556Z,1020.09
2018-02-07T12:39:54.502Z,1020.11
2018-02-07T12:41:03.718Z,1020.1
2018-02-07T12:42:12.670Z,1020.12
2018-02-07T12:43:21.621Z,1020.07
2018-02-07T12:44:30.305Z,1020.08
2018-02-07T12:45:38.987Z,1020.08
2018-02-07T12:46:47.674Z,1020.08
2018-02-07T12:47:56.646Z,1020.06
2018-02-07T12:49:06.123Z,1020.05
2018-02-07T12:50:15.072Z,1020.07
2018-02-07T12:51:24.290Z,1020.07
2018-02-07T12:52:33.503Z,1020.05
2018-02-07T12:53:42.185Z,1020.08
2018-02-07T12:54:51.399Z,1020.11
2018-02-07T12:56:00.344Z,1020.09
2018-02-07T12:57:09.559Z,1020.08
2018-02-07T12:58:18.518Z,1020.05
2018-02-07T12:59:27.466Z,1020.09
2018-02-07T13:00:36.419Z,1020.07
2018-02-07T13:01:45.418Z,1020.07
2018-02-07T13:02:54.101Z,1020.03
2018-02-07T13:04:02.785Z,1020.04
2018-02-07T13:05:11.732Z,1020
2018-02-07T13:06:20.943Z,1020.02
2018-02-07T13:07:29.892Z,1020
2018-02-07T13:08:39.379Z,1020.01
2018-02-07T13:09:48.061Z,1019.99
2018-02-07T13:10:57.014Z,1019.95
2018-02-07T13:12:06.498Z,1019.97
2018-02-07T13:13:15.451Z,1020
2018-02-07T13:14:24.397Z,1019.99
2018-02-07T13:15:33.877Z,1019.99
2018-02-07T13:16:43.090Z,1020
2018-02-07T13:17:51.773Z,1019.99
2018-02-07T13:19:00.457Z,1020.02
2018-02-07T13:20:09.934Z,1019.98
2018-02-07T13:21:19.150Z,1020
2018-02-07T13:22:27.831Z,1019.97
2018-02-07T13:23:37.309Z,1020.02
2018-02-07T13:24:46.524Z,1019.99
2018-02-07T13:25:56.268Z,1020.01
2018-02-07T13:27:05.482Z,1020.02
2018-02-07T13:28:14.168Z,1020
2018-02-07T13:29:22.850Z,1020.05
2018-02-07T13:30:31.535Z,1020.02
2018-02-07T13:31:40.750Z,1020.04
2018-02-07T13:32:49.960Z,1020.07
2018-02-07T13:33:59.701Z,1020.1
2018-02-07T13:35:08.652Z,1020.11
2018-02-07T13:36:17.604Z,1020.14
2018-02-07T13:37:26.551Z,1020.14
2018-02-07T13:38:36.030Z,1020.11
2018-02-07T13:39:45.546Z,1020.13
2018-02-07T13:40:54.497Z,1020.13
2018-02-07T13:42:03.448Z,1020.14
2018-02-07T13:43:12.663Z,1020.16
2018-02-07T13:44:21.879Z,1020.18
2018-02-07T13:45:30.564Z,1020.21
2018-02-07T13:46:39.775Z,1020.14
2018-02-07T13:47:49.252Z,1020.13
2018-02-07T13:48:58.200Z,1020.15
2018-02-07T13:50:06.896Z,1020.1
2018-02-07T13:51:15.901Z,1020.11
2018-02-07T13:52:25.120Z,1020.07
2018-02-07T13:53:34.067Z,1020.07
2018-02-07T13:54:43.016Z,1020.11
2018-02-07T13:55:51.697Z,1020.04
2018-02-07T13:57:00.379Z,1020.09
2018-02-07T13:58:09.598Z,1020.06